sensor_id;sensor_type;location;lat;lon;timestamp;temperature;humidity
29237;DHT22;16266;50.866;4.398;2022-09-03T00:02:18;20.70;85.70
29237;DHT22;16266;50.866;4.398;2022-09-03T00:07:34;20.70;81.80
29237;DHT22;16266;50.866;4.398;2022-09-03T00:10:05;20.80;79.10
29237;DHT22;16266;50.866;4.398;2022-09-03T00:12:36;20.90;78.00
29237;DHT22;16266;50.866;4.398;2022-09-03T00:15:24;20.80;77.70
29237;DHT22;16266;50.866;4.398;2022-09-03T00:18:06;20.90;77.60
29237;DHT22;16266;50.866;4.398;2022-09-03T00:20:43;20.80;77.20
29237;DHT22;16266;50.866;4.398;2022-09-03T00:23:15;20.70;78.30
29237;DHT22;16266;50.866;4.398;2022-09-03T00:31:36;20.90;74.90
29237;DHT22;16266;50.866;4.398;2022-09-03T00:34:26;20.90;74.30
29237;DHT22;16266;50.866;4.398;2022-09-03T00:36:54;20.90;72.10
29237;DHT22;16266;50.866;4.398;2022-09-03T00:39:23;20.90;69.60
29237;DHT22;16266;50.866;4.398;2022-09-03T00:49:52;20.70;67.50
29237;DHT22;16266;50.866;4.398;2022-09-03T00:58:46;20.80;65.00
29237;DHT22;16266;50.866;4.398;2022-09-03T01:06:55;20.70;65.40
29237;DHT22;16266;50.866;4.398;2022-09-03T01:12:32;20.60;65.10
29237;DHT22;16266;50.866;4.398;2022-09-03T01:20:24;20.70;62.60
29237;DHT22;16266;50.866;4.398;2022-09-03T01:23:03;20.70;63.00
29237;DHT22;16266;50.866;4.398;2022-09-03T01:25:53;20.70;64.10
29237;DHT22;16266;50.866;4.398;2022-09-03T01:31:31;20.60;67.30
29237;DHT22;16266;50.866;4.398;2022-09-03T01:43:02;20.60;72.50
29237;DHT22;16266;50.866;4.398;2022-09-03T01:46:01;20.60;74.20
29237;DHT22;16266;50.866;4.398;2022-09-03T01:48:48;20.70;74.50
29237;DHT22;16266;50.866;4.398;2022-09-03T01:51:29;20.60;76.30
29237;DHT22;16266;50.866;4.398;2022-09-03T01:57:18;20.60;79.60
29237;DHT22;16266;50.866;4.398;2022-09-03T02:02:28;20.70;82.70
29237;DHT22;16266;50.866;4.398;2022-09-03T02:05:12;20.70;83.60
29237;DHT22;16266;50.866;4.398;2022-09-03T02:10:07;20.80;86.50
29237;DHT22;16266;50.866;4.398;2022-09-03T02:12:35;20.80;89.30
29237;DHT22;16266;50.866;4.398;2022-09-03T02:15:06;20.80;90.90
29237;DHT22;16266;50.866;4.398;2022-09-03T02:17:34;20.70;91.40
29237;DHT22;16266;50.866;4.398;2022-09-03T02:20:04;20.60;92.50
29237;DHT22;16266;50.866;4.398;2022-09-03T02:22:32;20.60;93.80
29237;DHT22;16266;50.866;4.398;2022-09-03T02:24:58;20.40;94.60
29237;DHT22;16266;50.866;4.398;2022-09-03T02:27:25;20.40;95.40
29237;DHT22;16266;50.866;4.398;2022-09-03T02:29:50;20.50;96.30
29237;DHT22;16266;50.866;4.398;2022-09-03T02:32:16;20.60;96.40
29237;DHT22;16266;50.866;4.398;2022-09-03T02:34:42;20.70;97.60
29237;DHT22;16266;50.866;4.398;2022-09-03T02:37:13;20.80;98.00
29237;DHT22;16266;50.866;4.398;2022-09-03T02:39:39;20.80;98.40
29237;DHT22;16266;50.866;4.398;2022-09-03T02:42:05;20.90;99.60
29237;DHT22;16266;50.866;4.398;2022-09-03T02:44:34;20.90;99.90
29237;DHT22;16266;50.866;4.398;2022-09-03T02:47:05;20.80;99.90
29237;DHT22;16266;50.866;4.398;2022-09-03T02:49:32;20.80;99.90
29237;DHT22;16266;50.866;4.398;2022-09-03T02:51:59;20.70;99.90
29237;DHT22;16266;50.866;4.398;2022-09-03T02:54:26;20.70;99.90
29237;DHT22;16266;50.866;4.398;2022-09-03T02:56:52;20.70;99.90
29237;DHT22;16266;50.866;4.398;2022-09-03T02:59:17;20.60;99.90
29237;DHT22;16266;50.866;4.398;2022-09-03T03:01:43;20.70;99.90
29237;DHT22;16266;50.866;4.398;2022-09-03T03:04:09;20.70;99.90
29237;DHT22;16266;50.866;4.398;2022-09-03T03:06:34;20.70;99.90
29237;DHT22;16266;50.866;4.398;2022-09-03T03:09:01;20.80;99.90
29237;DHT22;16266;50.866;4.398;2022-09-03T03:11:30;20.70;99.90
29237;DHT22;16266;50.866;4.398;2022-09-03T03:13:56;20.80;99.90
29237;DHT22;16266;50.866;4.398;2022-09-03T03:16:22;20.80;99.90
29237;DHT22;16266;50.866;4.398;2022-09-03T03:18:48;20.70;99.90
29237;DHT22;16266;50.866;4.398;2022-09-03T03:21:16;20.70;99.90
29237;DHT22;16266;50.866;4.398;2022-09-03T03:23:43;20.60;99.90
29237;DHT22;16266;50.866;4.398;2022-09-03T03:26:11;20.60;99.90
29237;DHT22;16266;50.866;4.398;2022-09-03T03:28:37;20.60;99.90
29237;DHT22;16266;50.866;4.398;2022-09-03T03:31:17;20.60;99.90
29237;DHT22;16266;50.866;4.398;2022-09-03T03:33:43;20.70;99.90
29237;DHT22;16266;50.866;4.398;2022-09-03T03:36:14;20.70;99.90
29237;DHT22;16266;50.866;4.398;2022-09-03T03:38:40;20.70;99.90
29237;DHT22;16266;50.866;4.398;2022-09-03T03:41:09;20.70;99.90
29237;DHT22;16266;50.866;4.398;2022-09-03T03:43:34;20.60;99.90
29237;DHT22;16266;50.866;4.398;2022-09-03T03:46:00;20.50;99.90
29237;DHT22;16266;50.866;4.398;2022-09-03T03:48:26;20.60;99.90
29237;DHT22;16266;50.866;4.398;2022-09-03T03:50:52;20.70;99.90
29237;DHT22;16266;50.866;4.398;2022-09-03T03:53:18;20.60;99.90
29237;DHT22;16266;50.866;4.398;2022-09-03T03:55:53;20.60;99.90
29237;DHT22;16266;50.866;4.398;2022-09-03T03:58:19;20.70;99.90
29237;DHT22;16266;50.866;4.398;2022-09-03T04:00:45;20.70;99.90
29237;DHT22;16266;50.866;4.398;2022-09-03T04:03:12;20.40;99.90
29237;DHT22;16266;50.866;4.398;2022-09-03T04:05:37;20.20;99.90
29237;DHT22;16266;50.866;4.398;2022-09-03T04:08:03;19.80;99.90
29237;DHT22;16266;50.866;4.398;2022-09-03T04:10:29;19.60;99.90
29237;DHT22;16266;50.866;4.398;2022-09-03T04:12:54;19.20;99.90
29237;DHT22;16266;50.866;4.398;2022-09-03T04:15:20;19.10;99.90
29237;DHT22;16266;50.866;4.398;2022-09-03T04:17:46;18.80;99.90
29237;DHT22;16266;50.866;4.398;2022-09-03T04:20:11;18.60;99.90
29237;DHT22;16266;50.866;4.398;2022-09-03T04:22:37;18.50;99.90
29237;DHT22;16266;50.866;4.398;2022-09-03T04:25:03;18.30;99.90
29237;DHT22;16266;50.866;4.398;2022-09-03T04:27:29;18.20;99.90
29237;DHT22;16266;50.866;4.398;2022-09-03T04:29:55;18.00;99.90
29237;DHT22;16266;50.866;4.398;2022-09-03T04:32:21;17.90;99.90
29237;DHT22;16266;50.866;4.398;2022-09-03T04:35:05;17.90;99.90
29237;DHT22;16266;50.866;4.398;2022-09-03T04:37:31;17.80;99.90
29237;DHT22;16266;50.866;4.398;2022-09-03T04:39:57;17.90;99.90
29237;DHT22;16266;50.866;4.398;2022-09-03T04:42:23;17.90;99.90
29237;DHT22;16266;50.866;4.398;2022-09-03T04:44:49;17.90;99.90
29237;DHT22;16266;50.866;4.398;2022-09-03T04:47:15;17.90;99.90
29237;DHT22;16266;50.866;4.398;2022-09-03T04:49:41;18.00;99.90
29237;DHT22;16266;50.866;4.398;2022-09-03T04:52:06;18.00;99.90
29237;DHT22;16266;50.866;4.398;2022-09-03T04:54:32;18.00;99.90
29237;DHT22;16266;50.866;4.398;2022-09-03T04:56:58;18.00;99.90
29237;DHT22;16266;50.866;4.398;2022-09-03T04:59:23;17.90;99.90
29237;DHT22;16266;50.866;4.398;2022-09-03T05:01:49;17.90;99.90
29237;DHT22;16266;50.866;4.398;2022-09-03T05:04:17;17.90;99.90
29237;DHT22;16266;50.866;4.398;2022-09-03T05:06:43;18.00;99.90
29237;DHT22;16266;50.866;4.398;2022-09-03T05:09:09;18.10;99.90
29237;DHT22;16266;50.866;4.398;2022-09-03T05:11:35;18.00;99.90
29237;DHT22;16266;50.866;4.398;2022-09-03T05:14:01;18.10;99.90
29237;DHT22;16266;50.866;4.398;2022-09-03T05:16:27;18.10;99.90
29237;DHT22;16266;50.866;4.398;2022-09-03T05:18:55;18.20;99.90
29237;DHT22;16266;50.866;4.398;2022-09-03T05:21:24;18.20;99.90
29237;DHT22;16266;50.866;4.398;2022-09-03T05:23:51;18.20;99.90
29237;DHT22;16266;50.866;4.398;2022-09-03T05:26:25;18.30;99.90
29237;DHT22;16266;50.866;4.398;2022-09-03T05:28:58;18.20;99.90
29237;DHT22;16266;50.866;4.398;2022-09-03T05:31:26;18.30;99.90
29237;DHT22;16266;50.866;4.398;2022-09-03T05:33:54;18.30;99.90
29237;DHT22;16266;50.866;4.398;2022-09-03T05:36:23;18.30;99.90
29237;DHT22;16266;50.866;4.398;2022-09-03T05:38:50;18.30;99.90
29237;DHT22;16266;50.866;4.398;2022-09-03T05:41:16;18.40;99.90
29237;DHT22;16266;50.866;4.398;2022-09-03T05:43:43;18.40;99.90
29237;DHT22;16266;50.866;4.398;2022-09-03T05:46:13;18.50;99.90
29237;DHT22;16266;50.866;4.398;2022-09-03T05:48:41;18.60;99.90
29237;DHT22;16266;50.866;4.398;2022-09-03T05:51:10;18.70;99.90
29237;DHT22;16266;50.866;4.398;2022-09-03T05:53:38;18.60;99.90
29237;DHT22;16266;50.866;4.398;2022-09-03T05:56:13;18.70;99.90
29237;DHT22;16266;50.866;4.398;2022-09-03T05:58:45;18.80;99.90
29237;DHT22;16266;50.866;4.398;2022-09-03T06:01:19;18.90;99.90
29237;DHT22;16266;50.866;4.398;2022-09-03T06:03:47;19.00;99.90
29237;DHT22;16266;50.866;4.398;2022-09-03T06:06:13;19.00;99.90
29237;DHT22;16266;50.866;4.398;2022-09-03T06:08:40;19.00;99.90
29237;DHT22;16266;50.866;4.398;2022-09-03T06:11:07;19.00;99.90
29237;DHT22;16266;50.866;4.398;2022-09-03T06:13:34;19.00;99.90
29237;DHT22;16266;50.866;4.398;2022-09-03T06:16:02;19.00;99.90
29237;DHT22;16266;50.866;4.398;2022-09-03T06:18:29;19.10;99.90
29237;DHT22;16266;50.866;4.398;2022-09-03T06:20:59;19.20;99.90
29237;DHT22;16266;50.866;4.398;2022-09-03T06:23:25;19.20;99.90
29237;DHT22;16266;50.866;4.398;2022-09-03T06:26:12;19.20;99.90
29237;DHT22;16266;50.866;4.398;2022-09-03T06:28:40;19.30;99.90
29237;DHT22;16266;50.866;4.398;2022-09-03T06:31:09;19.30;99.90
29237;DHT22;16266;50.866;4.398;2022-09-03T06:33:37;19.40;99.90
29237;DHT22;16266;50.866;4.398;2022-09-03T06:36:05;19.30;99.90
29237;DHT22;16266;50.866;4.398;2022-09-03T06:38:33;19.30;99.90
29237;DHT22;16266;50.866;4.398;2022-09-03T06:41:13;19.10;99.90
29237;DHT22;16266;50.866;4.398;2022-09-03T06:43:41;19.10;99.90
29237;DHT22;16266;50.866;4.398;2022-09-03T06:46:12;19.10;99.90
29237;DHT22;16266;50.866;4.398;2022-09-03T06:48:38;19.30;99.90
29237;DHT22;16266;50.866;4.398;2022-09-03T06:51:13;19.50;99.90
29237;DHT22;16266;50.866;4.398;2022-09-03T06:53:44;19.70;99.90
29237;DHT22;16266;50.866;4.398;2022-09-03T06:56:14;20.10;99.90
29237;DHT22;16266;50.866;4.398;2022-09-03T06:58:43;20.40;99.90
29237;DHT22;16266;50.866;4.398;2022-09-03T07:01:11;20.70;99.90
29237;DHT22;16266;50.866;4.398;2022-09-03T07:03:38;21.10;99.90
29237;DHT22;16266;50.866;4.398;2022-09-03T07:06:09;21.30;99.90
29237;DHT22;16266;50.866;4.398;2022-09-03T07:08:35;21.40;99.90
29237;DHT22;16266;50.866;4.398;2022-09-03T07:11:03;21.70;99.90
29237;DHT22;16266;50.866;4.398;2022-09-03T07:13:36;21.80;99.90
29237;DHT22;16266;50.866;4.398;2022-09-03T07:16:08;22.10;99.90
29237;DHT22;16266;50.866;4.398;2022-09-03T07:18:34;22.20;99.90
29237;DHT22;16266;50.866;4.398;2022-09-03T07:21:11;22.40;99.90
29237;DHT22;16266;50.866;4.398;2022-09-03T07:23:38;22.80;99.90
29237;DHT22;16266;50.866;4.398;2022-09-03T07:26:10;22.90;99.90
29237;DHT22;16266;50.866;4.398;2022-09-03T07:28:38;23.10;99.90
29237;DHT22;16266;50.866;4.398;2022-09-03T07:31:09;23.10;99.90
29237;DHT22;16266;50.866;4.398;2022-09-03T07:33:40;23.20;99.90
29237;DHT22;16266;50.866;4.398;2022-09-03T07:36:11;23.20;99.90
29237;DHT22;16266;50.866;4.398;2022-09-03T07:38:39;23.50;99.90
29237;DHT22;16266;50.866;4.398;2022-09-03T07:41:07;23.70;99.90
29237;DHT22;16266;50.866;4.398;2022-09-03T07:43:41;24.00;99.90
29237;DHT22;16266;50.866;4.398;2022-09-03T07:46:15;24.20;99.90
29237;DHT22;16266;50.866;4.398;2022-09-03T07:48:45;24.10;99.90
29237;DHT22;16266;50.866;4.398;2022-09-03T07:51:11;24.20;99.90
29237;DHT22;16266;50.866;4.398;2022-09-03T07:53:37;24.00;99.90
29237;DHT22;16266;50.866;4.398;2022-09-03T07:56:07;24.10;99.90
29237;DHT22;16266;50.866;4.398;2022-09-03T07:58:35;24.00;99.90
29237;DHT22;16266;50.866;4.398;2022-09-03T08:01:09;24.50;99.90
29237;DHT22;16266;50.866;4.398;2022-09-03T08:03:36;24.70;99.90
29237;DHT22;16266;50.866;4.398;2022-09-03T08:06:04;25.00;99.90
29237;DHT22;16266;50.866;4.398;2022-09-03T08:08:31;25.30;99.90
29237;DHT22;16266;50.866;4.398;2022-09-03T08:11:11;25.80;99.90
29237;DHT22;16266;50.866;4.398;2022-09-03T08:13:38;25.90;99.90
29237;DHT22;16266;50.866;4.398;2022-09-03T08:16:05;26.00;99.90
29237;DHT22;16266;50.866;4.398;2022-09-03T08:18:32;26.40;99.90
29237;DHT22;16266;50.866;4.398;2022-09-03T08:21:05;26.60;99.90
29237;DHT22;16266;50.866;4.398;2022-09-03T08:23:32;26.80;99.90
29237;DHT22;16266;50.866;4.398;2022-09-03T08:25:59;26.80;99.90
29237;DHT22;16266;50.866;4.398;2022-09-03T08:28:26;26.80;99.90
29237;DHT22;16266;50.866;4.398;2022-09-03T08:30:51;27.00;99.90
29237;DHT22;16266;50.866;4.398;2022-09-03T08:33:17;27.40;99.90
29237;DHT22;16266;50.866;4.398;2022-09-03T08:36:08;27.90;99.90
29237;DHT22;16266;50.866;4.398;2022-09-03T08:38:35;28.60;99.90
29237;DHT22;16266;50.866;4.398;2022-09-03T08:41:07;28.60;96.20
29237;DHT22;16266;50.866;4.398;2022-09-03T08:46:08;28.90;90.90
29237;DHT22;16266;50.866;4.398;2022-09-03T08:48:34;28.90;91.10
29237;DHT22;16266;50.866;4.398;2022-09-03T08:51:02;28.80;91.50
29237;DHT22;16266;50.866;4.398;2022-09-03T08:56:26;28.90;90.40
29237;DHT22;16266;50.866;4.398;2022-09-03T08:58:54;29.20;88.30
29237;DHT22;16266;50.866;4.398;2022-09-03T09:14:44;30.70;70.00
29237;DHT22;16266;50.866;4.398;2022-09-03T09:23:00;31.00;66.30
29237;DHT22;16266;50.866;4.398;2022-09-03T09:25:28;30.90;65.40
29237;DHT22;16266;50.866;4.398;2022-09-03T09:27:59;30.80;65.20
29237;DHT22;16266;50.866;4.398;2022-09-03T09:30:27;31.10;62.00
29237;DHT22;16266;50.866;4.398;2022-09-03T09:32:53;31.50;62.00
29237;DHT22;16266;50.866;4.398;2022-09-03T09:35:21;31.80;60.00
29237;DHT22;16266;50.866;4.398;2022-09-03T09:40:23;32.40;54.20
29237;DHT22;16266;50.866;4.398;2022-09-03T09:42:50;32.80;54.50
29237;DHT22;16266;50.866;4.398;2022-09-03T09:45:16;33.40;49.90
29237;DHT22;16266;50.866;4.398;2022-09-03T09:47:43;33.50;47.70
29237;DHT22;16266;50.866;4.398;2022-09-03T09:50:18;33.30;48.30
29237;DHT22;16266;50.866;4.398;2022-09-03T09:52:45;32.70;47.30
29237;DHT22;16266;50.866;4.398;2022-09-03T09:55:17;32.10;49.30
29237;DHT22;16266;50.866;4.398;2022-09-03T09:57:46;31.70;51.00
29237;DHT22;16266;50.866;4.398;2022-09-03T10:00:15;31.60;52.20
29237;DHT22;16266;50.866;4.398;2022-09-03T10:02:49;31.30;52.70
29237;DHT22;16266;50.866;4.398;2022-09-03T10:05:21;31.00;53.60
29237;DHT22;16266;50.866;4.398;2022-09-03T10:08:05;30.80;55.90
29237;DHT22;16266;50.866;4.398;2022-09-03T10:10:44;30.70;56.20
29237;DHT22;16266;50.866;4.398;2022-09-03T10:13:21;32.30;52.90
29237;DHT22;16266;50.866;4.398;2022-09-03T10:16:05;32.10;52.70
29237;DHT22;16266;50.866;4.398;2022-09-03T10:18:44;31.20;53.40
29237;DHT22;16266;50.866;4.398;2022-09-03T10:21:17;31.20;54.30
29237;DHT22;16266;50.866;4.398;2022-09-03T10:26:44;31.20;55.30
29237;DHT22;16266;50.866;4.398;2022-09-03T10:29:11;31.70;55.30
29237;DHT22;16266;50.866;4.398;2022-09-03T10:45:12;31.90;51.90
29237;DHT22;16266;50.866;4.398;2022-09-03T10:48:01;32.60;51.30
29237;DHT22;16266;50.866;4.398;2022-09-03T10:56:10;34.20;44.30
29237;DHT22;16266;50.866;4.398;2022-09-03T11:07:07;37.70;34.30
29237;DHT22;16266;50.866;4.398;2022-09-03T11:10:00;37.90;31.50
29237;DHT22;16266;50.866;4.398;2022-09-03T11:12:33;37.70;30.40
29237;DHT22;16266;50.866;4.398;2022-09-03T11:15:30;37.00;29.40
29237;DHT22;16266;50.866;4.398;2022-09-03T11:17:59;36.00;31.60
29237;DHT22;16266;50.866;4.398;2022-09-03T11:20:28;36.40;31.70
29237;DHT22;16266;50.866;4.398;2022-09-03T11:22:59;37.30;30.90
29237;DHT22;16266;50.866;4.398;2022-09-03T11:25:35;38.40;28.80
29237;DHT22;16266;50.866;4.398;2022-09-03T11:28:50;38.80;26.30
29237;DHT22;16266;50.866;4.398;2022-09-03T11:34:05;40.40;21.80
29237;DHT22;16266;50.866;4.398;2022-09-03T11:36:34;40.00;20.40
29237;DHT22;16266;50.866;4.398;2022-09-03T11:42:12;37.00;23.10
29237;DHT22;16266;50.866;4.398;2022-09-03T11:44:49;35.60;25.50
29237;DHT22;16266;50.866;4.398;2022-09-03T11:47:22;34.20;27.70
29237;DHT22;16266;50.866;4.398;2022-09-03T11:49:52;33.30;28.80
29237;DHT22;16266;50.866;4.398;2022-09-03T11:52:30;33.20;29.70
29237;DHT22;16266;50.866;4.398;2022-09-03T11:54:57;33.40;30.10
29237;DHT22;16266;50.866;4.398;2022-09-03T11:57:28;33.40;29.60
29237;DHT22;16266;50.866;4.398;2022-09-03T12:00:07;33.30;29.70
29237;DHT22;16266;50.866;4.398;2022-09-03T12:02:36;33.80;29.20
29237;DHT22;16266;50.866;4.398;2022-09-03T12:05:19;34.50;28.50
29237;DHT22;16266;50.866;4.398;2022-09-03T12:11:10;34.00;28.60
29237;DHT22;16266;50.866;4.398;2022-09-03T12:13:53;34.10;28.50
29237;DHT22;16266;50.866;4.398;2022-09-03T12:19:26;34.80;27.80
29237;DHT22;16266;50.866;4.398;2022-09-03T12:21:53;34.90;28.10
29237;DHT22;16266;50.866;4.398;2022-09-03T12:24:20;35.00;27.90
29237;DHT22;16266;50.866;4.398;2022-09-03T12:26:47;34.80;28.80
29237;DHT22;16266;50.866;4.398;2022-09-03T12:29:25;34.70;28.70
29237;DHT22;16266;50.866;4.398;2022-09-03T12:31:51;35.10;27.60
29237;DHT22;16266;50.866;4.398;2022-09-03T12:34:18;35.40;27.40
29237;DHT22;16266;50.866;4.398;2022-09-03T12:36:46;36.20;26.50
29237;DHT22;16266;50.866;4.398;2022-09-03T12:39:17;36.50;25.90
29237;DHT22;16266;50.866;4.398;2022-09-03T12:41:59;36.60;24.20
29237;DHT22;16266;50.866;4.398;2022-09-03T12:44:38;36.50;24.90
29237;DHT22;16266;50.866;4.398;2022-09-03T12:49:36;35.80;25.90
29237;DHT22;16266;50.866;4.398;2022-09-03T12:52:15;35.40;25.10
29237;DHT22;16266;50.866;4.398;2022-09-03T12:54:57;35.30;25.20
29237;DHT22;16266;50.866;4.398;2022-09-03T12:57:33;35.40;25.50
29237;DHT22;16266;50.866;4.398;2022-09-03T13:00:04;37.60;24.30
29237;DHT22;16266;50.866;4.398;2022-09-03T13:05:04;39.30;19.60
29237;DHT22;16266;50.866;4.398;2022-09-03T13:07:33;38.30;20.00
29237;DHT22;16266;50.866;4.398;2022-09-03T13:10:06;37.40;21.30
29237;DHT22;16266;50.866;4.398;2022-09-03T13:12:44;37.60;21.90
29237;DHT22;16266;50.866;4.398;2022-09-03T13:15:23;37.50;21.50
29237;DHT22;16266;50.866;4.398;2022-09-03T13:23:13;36.90;21.90
29237;DHT22;16266;50.866;4.398;2022-09-03T13:28:31;36.30;21.90
29237;DHT22;16266;50.866;4.398;2022-09-03T13:33:49;35.40;22.40
29237;DHT22;16266;50.866;4.398;2022-09-03T13:36:21;35.60;22.60
29237;DHT22;16266;50.866;4.398;2022-09-03T13:38:58;35.40;22.50
29237;DHT22;16266;50.866;4.398;2022-09-03T13:44:08;35.70;21.60
29237;DHT22;16266;50.866;4.398;2022-09-03T13:49:30;36.70;20.70
29237;DHT22;16266;50.866;4.398;2022-09-03T13:52:41;36.00;21.20
29237;DHT22;16266;50.866;4.398;2022-09-03T13:55:12;35.40;22.00
29237;DHT22;16266;50.866;4.398;2022-09-03T13:57:56;34.80;22.40
29237;DHT22;16266;50.866;4.398;2022-09-03T14:03:17;35.40;22.00
29237;DHT22;16266;50.866;4.398;2022-09-03T14:06:10;35.00;21.90
29237;DHT22;16266;50.866;4.398;2022-09-03T14:11:56;34.90;21.70
29237;DHT22;16266;50.866;4.398;2022-09-03T14:14:52;34.20;22.10
29237;DHT22;16266;50.866;4.398;2022-09-03T14:20:22;33.50;23.50
29237;DHT22;16266;50.866;4.398;2022-09-03T14:25:39;33.00;23.80
29237;DHT22;16266;50.866;4.398;2022-09-03T14:28:36;33.10;24.80
29237;DHT22;16266;50.866;4.398;2022-09-03T14:36:40;32.10;25.00
29237;DHT22;16266;50.866;4.398;2022-09-03T14:39:13;31.70;24.70
29237;DHT22;16266;50.866;4.398;2022-09-03T14:50:27;30.80;27.10
29237;DHT22;16266;50.866;4.398;2022-09-03T14:58:24;29.60;68.80
29237;DHT22;16266;50.866;4.398;2022-09-03T15:01:36;28.30;99.90
29237;DHT22;16266;50.866;4.398;2022-09-03T15:12:49;25.50;99.90
29237;DHT22;16266;50.866;4.398;2022-09-03T15:15:31;25.20;99.90
29237;DHT22;16266;50.866;4.398;2022-09-03T15:18:15;25.00;99.90
29237;DHT22;16266;50.866;4.398;2022-09-03T15:35:09;25.70;99.90
29237;DHT22;16266;50.866;4.398;2022-09-03T15:37:51;25.80;99.90
29237;DHT22;16266;50.866;4.398;2022-09-03T15:43:14;25.60;99.90
29237;DHT22;16266;50.866;4.398;2022-09-03T15:45:52;25.90;99.90
29237;DHT22;16266;50.866;4.398;2022-09-03T15:48:47;26.30;99.90
29237;DHT22;16266;50.866;4.398;2022-09-03T15:51:42;26.70;99.90
29237;DHT22;16266;50.866;4.398;2022-09-03T15:54:35;27.00;99.90
29237;DHT22;16266;50.866;4.398;2022-09-03T15:57:32;27.10;99.90
29237;DHT22;16266;50.866;4.398;2022-09-03T16:00:05;26.90;99.90
29237;DHT22;16266;50.866;4.398;2022-09-03T16:02:39;26.80;99.90
29237;DHT22;16266;50.866;4.398;2022-09-03T16:05:19;26.70;99.90
29237;DHT22;16266;50.866;4.398;2022-09-03T16:11:12;26.50;99.90
29237;DHT22;16266;50.866;4.398;2022-09-03T16:17:02;26.40;99.90
29237;DHT22;16266;50.866;4.398;2022-09-03T16:19:33;26.60;99.90
29237;DHT22;16266;50.866;4.398;2022-09-03T16:22:16;26.70;99.90
29237;DHT22;16266;50.866;4.398;2022-09-03T16:24:58;26.90;99.90
29237;DHT22;16266;50.866;4.398;2022-09-03T16:27:41;27.10;99.90
29237;DHT22;16266;50.866;4.398;2022-09-03T16:30:13;27.10;99.90
29237;DHT22;16266;50.866;4.398;2022-09-03T16:33:01;27.10;99.90
29237;DHT22;16266;50.866;4.398;2022-09-03T16:38:54;26.90;99.90
29237;DHT22;16266;50.866;4.398;2022-09-03T16:46:59;26.60;99.90
29237;DHT22;16266;50.866;4.398;2022-09-03T16:49:42;26.50;99.90
29237;DHT22;16266;50.866;4.398;2022-09-03T16:55:54;26.20;99.90
29237;DHT22;16266;50.866;4.398;2022-09-03T16:58:42;26.30;99.90
29237;DHT22;16266;50.866;4.398;2022-09-03T17:07:09;26.20;99.90
29237;DHT22;16266;50.866;4.398;2022-09-03T17:12:37;26.20;99.90
29237;DHT22;16266;50.866;4.398;2022-09-03T17:25:38;26.30;99.90
29237;DHT22;16266;50.866;4.398;2022-09-03T17:36:14;26.10;99.90
29237;DHT22;16266;50.866;4.398;2022-09-03T17:41:33;25.60;99.90
29237;DHT22;16266;50.866;4.398;2022-09-03T17:49:45;25.10;99.90
29237;DHT22;16266;50.866;4.398;2022-09-03T18:06:33;24.50;99.90
29237;DHT22;16266;50.866;4.398;2022-09-03T18:11:49;24.30;99.90
29237;DHT22;16266;50.866;4.398;2022-09-03T18:20:00;23.90;99.90
29237;DHT22;16266;50.866;4.398;2022-09-03T18:23:10;23.80;99.90
29237;DHT22;16266;50.866;4.398;2022-09-03T18:26:05;23.80;99.90
29237;DHT22;16266;50.866;4.398;2022-09-03T18:29:00;23.70;99.90
29237;DHT22;16266;50.866;4.398;2022-09-03T18:31:45;23.60;99.90
29237;DHT22;16266;50.866;4.398;2022-09-03T18:34:32;23.60;99.90
29237;DHT22;16266;50.866;4.398;2022-09-03T18:37:21;23.50;99.90
29237;DHT22;16266;50.866;4.398;2022-09-03T18:40:07;23.40;99.90
29237;DHT22;16266;50.866;4.398;2022-09-03T18:45:49;23.10;99.90
29237;DHT22;16266;50.866;4.398;2022-09-03T18:49:04;23.10;99.90
29237;DHT22;16266;50.866;4.398;2022-09-03T18:52:10;23.00;99.90
29237;DHT22;16266;50.866;4.398;2022-09-03T18:58:14;22.70;99.90
29237;DHT22;16266;50.866;4.398;2022-09-03T19:01:34;22.70;99.90
29237;DHT22;16266;50.866;4.398;2022-09-03T19:04:53;22.60;99.90
29237;DHT22;16266;50.866;4.398;2022-09-03T19:13:34;22.40;99.90
29237;DHT22;16266;50.866;4.398;2022-09-03T19:22:36;22.40;99.90
29237;DHT22;16266;50.866;4.398;2022-09-03T19:25:22;22.50;99.90
29237;DHT22;16266;50.866;4.398;2022-09-03T19:37:22;22.50;99.90
29237;DHT22;16266;50.866;4.398;2022-09-03T19:49:17;22.00;99.90
29237;DHT22;16266;50.866;4.398;2022-09-03T19:52:29;21.90;99.90
29237;DHT22;16266;50.866;4.398;2022-09-03T19:55:19;21.90;99.90
29237;DHT22;16266;50.866;4.398;2022-09-03T19:58:04;21.60;99.90
29237;DHT22;16266;50.866;4.398;2022-09-03T20:00:49;21.50;99.90
29237;DHT22;16266;50.866;4.398;2022-09-03T20:03:34;21.50;99.90
29237;DHT22;16266;50.866;4.398;2022-09-03T20:06:18;21.40;99.90
29237;DHT22;16266;50.866;4.398;2022-09-03T20:09:07;21.40;99.90
29237;DHT22;16266;50.866;4.398;2022-09-03T20:11:56;21.40;99.90
29237;DHT22;16266;50.866;4.398;2022-09-03T20:14:22;21.40;99.90
29237;DHT22;16266;50.866;4.398;2022-09-03T20:22:24;21.20;99.90
29237;DHT22;16266;50.866;4.398;2022-09-03T20:34:04;21.20;99.90
29237;DHT22;16266;50.866;4.398;2022-09-03T20:36:45;21.10;99.90
29237;DHT22;16266;50.866;4.398;2022-09-03T20:45:02;21.00;99.90
29237;DHT22;16266;50.866;4.398;2022-09-03T20:47:50;20.90;99.90
29237;DHT22;16266;50.866;4.398;2022-09-03T20:55:54;20.80;99.90
29237;DHT22;16266;50.866;4.398;2022-09-03T20:58:37;20.80;99.90
29237;DHT22;16266;50.866;4.398;2022-09-03T21:01:08;20.80;99.90
29237;DHT22;16266;50.866;4.398;2022-09-03T21:06:46;20.80;99.90
29237;DHT22;16266;50.866;4.398;2022-09-03T21:12:15;20.80;99.90
29237;DHT22;16266;50.866;4.398;2022-09-03T21:14:57;20.80;99.90
29237;DHT22;16266;50.866;4.398;2022-09-03T21:20:38;20.80;99.90
29237;DHT22;16266;50.866;4.398;2022-09-03T21:23:17;20.70;99.90
29237;DHT22;16266;50.866;4.398;2022-09-03T21:26:20;20.70;99.90
29237;DHT22;16266;50.866;4.398;2022-09-03T21:31:48;20.70;99.90
29237;DHT22;16266;50.866;4.398;2022-09-03T21:36:50;20.50;99.90
29237;DHT22;16266;50.866;4.398;2022-09-03T21:39:20;20.50;99.90
29237;DHT22;16266;50.866;4.398;2022-09-03T21:42:15;20.50;99.90
29237;DHT22;16266;50.866;4.398;2022-09-03T21:44:46;20.50;99.90
29237;DHT22;16266;50.866;4.398;2022-09-03T21:47:17;20.40;99.90
29237;DHT22;16266;50.866;4.398;2022-09-03T21:49:57;20.30;99.90
29237;DHT22;16266;50.866;4.398;2022-09-03T21:55:01;20.30;99.90
29237;DHT22;16266;50.866;4.398;2022-09-03T21:57:33;20.20;99.90
29237;DHT22;16266;50.866;4.398;2022-09-03T22:00:46;20.20;99.90
29237;DHT22;16266;50.866;4.398;2022-09-03T22:02:57;20.30;99.90
29237;DHT22;16266;50.866;4.398;2022-09-03T22:05:34;20.30;99.90
29237;DHT22;16266;50.866;4.398;2022-09-03T22:08:16;20.40;99.90
29237;DHT22;16266;50.866;4.398;2022-09-03T22:11:19;20.30;99.90
29237;DHT22;16266;50.866;4.398;2022-09-03T22:14:16;20.30;99.90
29237;DHT22;16266;50.866;4.398;2022-09-03T22:16:53;20.20;99.90